createdAt,value
2022-08-07T00:01:43.609Z,15.10
2022-08-07T00:04:09.328Z,15.00
2022-08-07T00:06:40.958Z,15.00
2022-08-07T00:09:22.749Z,14.90
2022-08-07T00:11:55.910Z,14.90
2022-08-07T00:14:30.919Z,14.80
2022-08-07T00:17:02.749Z,14.90
2022-08-07T00:19:59.540Z,14.80
2022-08-07T00:22:30.796Z,14.80
2022-08-07T00:25:04.990Z,14.80
2022-08-07T00:27:51.762Z,14.70
2022-08-07T00:30:27.280Z,14.60
2022-08-07T00:32:58.130Z,14.50
2022-08-07T00:35:26.997Z,14.40
2022-08-07T00:37:57.861Z,14.30
2022-08-07T00:40:39.475Z,14.30
2022-08-07T00:43:59.506Z,14.20
2022-08-07T00:45:57.669Z,14.20
2022-08-07T00:48:31.807Z,14.20
2022-08-07T00:51:01.053Z,14.20
2022-08-07T00:53:39.281Z,14.10
2022-08-07T00:56:17.459Z,14.10
2022-08-07T00:58:46.792Z,14.00
2022-08-07T01:01:18.436Z,13.90
2022-08-07T01:03:55.510Z,13.90
2022-08-07T01:06:28.656Z,14.00
2022-08-07T01:08:58.643Z,14.00
2022-08-07T01:12:09.779Z,13.90
2022-08-07T01:14:21.294Z,13.90
2022-08-07T01:16:57.173Z,13.80
2022-08-07T01:19:32.295Z,13.80
2022-08-07T01:22:03.562Z,13.70
2022-08-07T01:24:37.433Z,13.70
2022-08-07T01:27:06.206Z,13.70
2022-08-07T01:29:54.381Z,13.60
2022-08-07T01:32:22.970Z,13.70
2022-08-07T01:34:51.813Z,13.60
2022-08-07T01:37:22.029Z,13.50
2022-08-07T01:39:50.269Z,13.50
2022-08-07T01:42:37.966Z,13.60
2022-08-07T01:45:09.727Z,13.60
2022-08-07T01:48:18.071Z,13.60
2022-08-07T01:50:33.201Z,13.60
2022-08-07T01:53:08.507Z,13.60
2022-08-07T01:55:42.797Z,13.60
2022-08-07T01:58:29.053Z,13.50
2022-08-07T02:01:10.252Z,13.50
2022-08-07T02:03:56.342Z,13.40
2022-08-07T02:06:31.260Z,13.40
2022-08-07T02:09:05.082Z,13.30
2022-08-07T02:12:04.061Z,13.20
2022-08-07T02:14:40.610Z,13.20
2022-08-07T02:17:11.135Z,13.20
2022-08-07T02:20:06.751Z,13.10
2022-08-07T02:22:29.205Z,13.00
2022-08-07T02:25:00.594Z,13.00
2022-08-07T02:27:34.206Z,12.90
2022-08-07T02:30:07.060Z,12.80
2022-08-07T02:32:39.524Z,12.80
2022-08-07T02:36:30.096Z,12.80
2022-08-07T02:38:17.045Z,12.80
2022-08-07T02:40:55.670Z,12.80
2022-08-07T02:43:24.414Z,12.90
2022-08-07T02:45:59.325Z,12.90
2022-08-07T02:48:30.784Z,12.90
2022-08-07T02:51:02.076Z,12.90
2022-08-07T02:53:38.718Z,12.90
2022-08-07T02:56:20.944Z,12.90
2022-08-07T02:58:54.187Z,12.90
2022-08-07T03:01:35.910Z,12.90
2022-08-07T03:04:07.785Z,12.90
2022-08-07T03:06:44.694Z,12.90
2022-08-07T03:09:43.757Z,12.80
2022-08-07T03:12:06.652Z,12.70
2022-08-07T03:14:37.203Z,12.70
2022-08-07T03:17:05.997Z,12.60
2022-08-07T03:19:37.483Z,12.60
2022-08-07T03:22:07.009Z,12.60
2022-08-07T03:24:36.649Z,12.60
2022-08-07T03:27:08.887Z,12.60
2022-08-07T03:29:44.662Z,12.70
2022-08-07T03:32:20.064Z,12.60
2022-08-07T03:35:00.911Z,12.60
2022-08-07T03:37:46.562Z,12.50
2022-08-07T03:40:22.277Z,12.50
2022-08-07T03:42:53.006Z,12.50
2022-08-07T03:45:30.637Z,12.50
2022-08-07T03:48:00.391Z,12.50
2022-08-07T03:50:30.003Z,12.50
2022-08-07T03:53:00.164Z,12.50
2022-08-07T03:55:57.656Z,12.50
2022-08-07T03:58:33.429Z,12.50
2022-08-07T04:01:05.601Z,12.50
2022-08-07T04:03:38.870Z,12.40
2022-08-07T04:06:37.402Z,12.40
2022-08-07T04:09:15.088Z,12.30
2022-08-07T04:12:23.539Z,12.30
2022-08-07T04:14:37.561Z,12.30
2022-08-07T04:17:20.336Z,12.30
2022-08-07T04:19:51.004Z,12.40
2022-08-07T04:22:22.984Z,12.40
2022-08-07T04:24:52.000Z,12.40
2022-08-07T04:27:25.823Z,12.40
2022-08-07T04:30:02.409Z,12.50
2022-08-07T04:32:35.124Z,12.40
2022-08-07T04:35:05.619Z,12.50
2022-08-07T04:37:52.892Z,12.50
2022-08-07T04:40:29.763Z,12.50
2022-08-07T04:43:01.238Z,12.60
2022-08-07T04:45:57.350Z,12.60
2022-08-07T04:48:35.406Z,12.70
2022-08-07T04:51:09.282Z,12.80
2022-08-07T04:54:01.866Z,13.40
2022-08-07T04:58:14.298Z,14.70
2022-08-07T05:00:11.065Z,16.50
2022-08-07T05:02:29.154Z,18.10
2022-08-07T05:05:02.839Z,19.90
2022-08-07T05:07:56.944Z,21.30
2022-08-07T05:10:35.138Z,22.70
2022-08-07T05:14:52.109Z,23.80
2022-08-07T05:16:04.543Z,24.80
2022-08-07T05:18:37.037Z,25.70
2022-08-07T05:21:09.768Z,26.20
2022-08-07T05:23:41.340Z,26.70
2022-08-07T05:26:23.697Z,26.90
2022-08-07T05:28:55.796Z,26.60
2022-08-07T05:31:35.129Z,26.00
2022-08-07T05:34:11.014Z,25.50
2022-08-07T05:36:41.325Z,24.70
2022-08-07T05:40:06.772Z,24.10
2022-08-07T05:42:02.657Z,23.50
2022-08-07T05:44:35.311Z,23.10
2022-08-07T05:47:18.137Z,22.80
2022-08-07T05:49:55.451Z,22.80
2022-08-07T05:52:32.558Z,22.50
2022-08-07T05:55:10.533Z,22.50
2022-08-07T05:57:42.412Z,22.40
2022-08-07T06:00:16.675Z,22.40
2022-08-07T06:02:51.341Z,22.30
2022-08-07T06:05:25.826Z,22.20
2022-08-07T06:08:13.235Z,22.30
2022-08-07T06:10:45.842Z,22.20
2022-08-07T06:13:19.665Z,22.20
2022-08-07T06:16:08.758Z,22.40
2022-08-07T06:18:39.508Z,22.70
2022-08-07T06:22:14.805Z,22.90
2022-08-07T06:24:53.033Z,23.20
2022-08-07T06:26:49.828Z,23.30
2022-08-07T06:29:19.005Z,23.50
2022-08-07T06:31:50.010Z,23.60
2022-08-07T06:34:19.535Z,23.80
2022-08-07T06:36:51.810Z,24.10
2022-08-07T06:40:16.016Z,24.30
2022-08-07T06:42:11.504Z,24.70
2022-08-07T06:44:41.809Z,25.10
2022-08-07T06:47:15.382Z,25.30
2022-08-07T06:49:52.045Z,25.70
2022-08-07T06:52:35.590Z,26.00
2022-08-07T06:55:32.698Z,26.40
2022-08-07T06:57:59.359Z,26.80
2022-08-07T07:00:29.374Z,26.90
2022-08-07T07:03:01.294Z,27.10
2022-08-07T07:06:03.542Z,27.20
2022-08-07T07:08:29.968Z,27.20
2022-08-07T07:11:13.528Z,27.60
2022-08-07T07:13:57.447Z,28.10
2022-08-07T07:16:39.173Z,28.60
2022-08-07T07:19:55.547Z,29.00
2022-08-07T07:22:36.093Z,29.50
2022-08-07T07:26:32.287Z,29.90
2022-08-07T07:27:58.419Z,30.20
2022-08-07T07:30:38.436Z,30.50
2022-08-07T07:33:11.533Z,30.70
2022-08-07T07:35:51.916Z,30.90
2022-08-07T07:38:34.951Z,31.00
2022-08-07T07:41:09.189Z,31.20
2022-08-07T07:44:14.381Z,31.10
2022-08-07T07:46:37.012Z,30.20
2022-08-07T07:50:31.306Z,29.60
2022-08-07T07:52:10.498Z,29.40
2022-08-07T07:54:50.671Z,29.60
2022-08-07T07:57:51.518Z,29.40
2022-08-07T08:00:18.292Z,28.90
2022-08-07T08:03:05.425Z,28.20
2022-08-07T08:05:50.771Z,28.20
2022-08-07T08:08:34.814Z,28.20
2022-08-07T08:11:08.544Z,28.60
2022-08-07T08:13:53.931Z,28.60
2022-08-07T08:16:31.011Z,28.50
2022-08-07T08:19:18.081Z,28.60
2022-08-07T08:22:10.545Z,28.80
2022-08-07T08:25:09.357Z,29.20
2022-08-07T08:27:57.094Z,29.20
2022-08-07T08:30:30.114Z,29.40
2022-08-07T08:33:03.722Z,29.50
2022-08-07T08:35:42.929Z,29.50
2022-08-07T08:38:16.810Z,29.20
2022-08-07T08:40:50.181Z,29.10
2022-08-07T08:43:32.035Z,29.20
2022-08-07T08:46:21.950Z,28.90
2022-08-07T08:48:59.108Z,29.10
2022-08-07T08:52:13.304Z,29.30
2022-08-07T08:54:25.785Z,29.30
2022-08-07T08:56:55.672Z,29.20
2022-08-07T08:59:30.153Z,28.40
2022-08-07T09:02:18.862Z,28.00
2022-08-07T09:05:18.177Z,27.60
2022-08-07T09:07:57.579Z,27.70
2022-08-07T09:10:31.157Z,27.50
2022-08-07T09:13:10.840Z,27.20
2022-08-07T09:16:22.814Z,27.10
2022-08-07T09:19:03.575Z,27.10
2022-08-07T09:22:09.780Z,27.00
2022-08-07T09:24:58.685Z,26.70
2022-08-07T09:27:59.722Z,26.40
2022-08-07T09:30:34.257Z,26.20
2022-08-07T09:33:16.451Z,26.30
2022-08-07T09:36:02.710Z,26.40
2022-08-07T09:38:50.151Z,26.50
2022-08-07T09:41:36.221Z,26.70
2022-08-07T09:44:33.003Z,26.40
2022-08-07T09:47:49.711Z,26.60
2022-08-07T09:50:19.160Z,26.60
2022-08-07T09:52:53.998Z,26.80
2022-08-07T09:55:29.371Z,27.00
2022-08-07T09:58:32.580Z,26.70
2022-08-07T10:01:50.252Z,26.50
2022-08-07T10:04:28.116Z,26.40
2022-08-07T10:07:26.212Z,26.50
2022-08-07T10:10:22.799Z,26.70
2022-08-07T10:13:29.555Z,26.70
2022-08-07T10:16:16.074Z,26.70
2022-08-07T10:19:11.434Z,26.60
2022-08-07T10:22:12.261Z,26.50
2022-08-07T10:25:05.601Z,26.60
2022-08-07T10:27:56.004Z,26.80
2022-08-07T10:30:34.971Z,26.80
2022-08-07T10:34:04.907Z,26.40
2022-08-07T10:36:29.359Z,26.20
2022-08-07T10:39:01.933Z,26.10
2022-08-07T10:41:52.844Z,26.30
2022-08-07T10:44:38.479Z,26.30
2022-08-07T10:47:27.136Z,26.40
2022-08-07T10:50:15.193Z,26.30
2022-08-07T10:52:52.941Z,26.40
2022-08-07T10:55:38.095Z,26.40
2022-08-07T10:58:25.126Z,26.50
2022-08-07T11:01:35.634Z,26.40
2022-08-07T11:04:31.975Z,26.40
2022-08-07T11:07:24.482Z,26.50
2022-08-07T11:10:07.124Z,26.40
2022-08-07T11:12:43.344Z,26.40
2022-08-07T11:15:18.099Z,26.30
2022-08-07T11:17:53.959Z,26.30
2022-08-07T11:20:25.388Z,26.20
2022-08-07T11:23:01.461Z,26.30
2022-08-07T11:25:43.867Z,26.30
2022-08-07T11:28:20.715Z,26.30
2022-08-07T11:30:56.084Z,26.30
2022-08-07T11:33:58.399Z,26.30
2022-08-07T11:36:40.282Z,26.20
2022-08-07T11:39:20.653Z,26.20
2022-08-07T11:42:01.517Z,26.30
2022-08-07T11:44:40.554Z,26.50
2022-08-07T11:47:38.992Z,26.30
2022-08-07T11:50:36.311Z,26.50
2022-08-07T11:53:26.022Z,26.70
2022-08-07T11:56:09.164Z,26.60
2022-08-07T11:59:02.292Z,26.50
2022-08-07T12:01:59.946Z,26.60
2022-08-07T12:04:58.098Z,26.70
2022-08-07T12:07:38.891Z,27.00
2022-08-07T12:10:14.756Z,27.10
2022-08-07T12:12:48.914Z,27.10
2022-08-07T12:15:35.817Z,27.00
2022-08-07T12:18:16.113Z,27.00
2022-08-07T12:21:01.252Z,26.90
2022-08-07T12:24:06.941Z,26.90
2022-08-07T12:26:44.824Z,26.80
2022-08-07T12:29:21.082Z,26.70
2022-08-07T12:32:13.607Z,26.90
2022-08-07T12:34:49.169Z,27.10
2022-08-07T12:37:28.000Z,27.30
2022-08-07T12:40:44.983Z,27.30
2022-08-07T12:43:09.800Z,27.20
2022-08-07T12:45:52.332Z,27.30
2022-08-07T12:48:41.462Z,27.40
2022-08-07T12:51:22.355Z,27.40
2022-08-07T12:54:36.325Z,27.30
2022-08-07T12:56:51.340Z,27.30
2022-08-07T12:59:33.011Z,27.30
2022-08-07T13:02:18.535Z,27.40
2022-08-07T13:05:01.723Z,27.40
2022-08-07T13:08:14.363Z,27.40
2022-08-07T13:10:59.689Z,27.30
2022-08-07T13:13:48.143Z,27.30
2022-08-07T13:16:27.760Z,27.40
2022-08-07T13:19:18.080Z,27.40
2022-08-07T13:22:02.069Z,27.40
2022-08-07T13:24:52.437Z,27.40
2022-08-07T13:27:33.418Z,27.30
2022-08-07T13:30:19.325Z,27.30
2022-08-07T13:34:14.530Z,27.20
2022-08-07T13:36:05.438Z,27.30
2022-08-07T13:38:41.897Z,27.20
2022-08-07T13:41:21.904Z,27.20
2022-08-07T13:43:56.078Z,27.30
2022-08-07T13:46:33.781Z,27.30
2022-08-07T13:49:08.744Z,27.30
2022-08-07T13:52:22.944Z,27.20
2022-08-07T13:54:49.283Z,27.20
2022-08-07T13:57:24.279Z,27.30
2022-08-07T13:59:55.707Z,27.40
2022-08-07T14:02:29.728Z,27.30
2022-08-07T14:05:04.680Z,27.40
2022-08-07T14:08:00.753Z,27.40
2022-08-07T14:10:42.211Z,27.40
2022-08-07T14:13:16.289Z,27.40
2022-08-07T14:15:51.295Z,27.30
2022-08-07T14:18:29.196Z,27.40
2022-08-07T14:21:08.089Z,27.50
2022-08-07T14:24:00.351Z,27.60
2022-08-07T14:26:34.207Z,27.50
2022-08-07T14:30:07.139Z,27.40
2022-08-07T14:32:01.025Z,27.30
2022-08-07T14:34:32.694Z,27.40
2022-08-07T14:37:03.408Z,27.40
2022-08-07T14:40:16.663Z,27.30
2022-08-07T14:42:27.507Z,27.10
2022-08-07T14:45:21.519Z,27.10
2022-08-07T14:47:53.030Z,27.10
2022-08-07T14:50:31.580Z,27.10
2022-08-07T14:56:00.903Z,27.20
2022-08-07T14:58:34.759Z,27.30
2022-08-07T15:01:21.633Z,27.30
2022-08-07T15:03:53.628Z,27.10
2022-08-07T15:06:26.281Z,27.00
2022-08-07T15:08:55.916Z,26.90
2022-08-07T15:14:22.383Z,26.90
2022-08-07T15:17:00.759Z,26.80
2022-08-07T15:20:31.900Z,26.90
2022-08-07T15:22:31.400Z,26.90
2022-08-07T15:25:17.977Z,26.90
2022-08-07T15:28:26.530Z,26.80
2022-08-07T15:31:04.619Z,26.80
2022-08-07T15:33:33.580Z,26.80
2022-08-07T15:36:05.110Z,26.80
2022-08-07T15:38:58.939Z,26.70
2022-08-07T15:44:19.787Z,26.70
2022-08-07T15:46:56.434Z,26.70
2022-08-07T15:50:05.831Z,26.80
2022-08-07T15:52:21.905Z,26.70
2022-08-07T15:55:03.664Z,26.60
2022-08-07T15:57:47.398Z,26.60
2022-08-07T16:00:31.433Z,26.50
2022-08-07T16:03:05.647Z,26.50
2022-08-07T16:05:36.144Z,26.50
2022-08-07T16:08:31.290Z,26.50
2022-08-07T16:11:04.490Z,26.60
2022-08-07T16:14:02.735Z,26.60
2022-08-07T16:16:57.133Z,26.60
2022-08-07T16:19:58.448Z,26.60
2022-08-07T16:23:05.426Z,26.50
2022-08-07T16:25:56.111Z,26.50
2022-08-07T16:30:06.675Z,26.40
2022-08-07T16:31:51.784Z,26.40
2022-08-07T16:34:39.425Z,26.30
2022-08-07T16:38:04.283Z,26.20
2022-08-07T16:40:57.031Z,26.20
2022-08-07T16:44:47.184Z,26.10
2022-08-07T16:47:45.497Z,26.00
2022-08-07T16:50:38.863Z,26.00
2022-08-07T16:54:01.336Z,26.00
2022-08-07T16:56:43.201Z,26.10
2022-08-07T16:59:25.055Z,26.10
2022-08-07T17:02:53.222Z,26.10
2022-08-07T17:06:01.678Z,26.10
2022-08-07T17:09:04.339Z,26.00
2022-08-07T17:12:01.999Z,25.90
2022-08-07T17:14:38.461Z,25.90
2022-08-07T17:17:15.616Z,25.80
2022-08-07T17:20:00.963Z,25.80
2022-08-07T17:22:37.701Z,25.70
2022-08-07T17:25:14.204Z,25.70
2022-08-07T17:28:06.735Z,25.70
2022-08-07T17:30:57.682Z,25.60
2022-08-07T17:34:08.327Z,25.60
2022-08-07T17:36:26.197Z,25.60
2022-08-07T17:39:02.498Z,25.60
2022-08-07T17:42:04.785Z,25.60
2022-08-07T17:44:58.408Z,25.60
2022-08-07T17:47:42.780Z,25.60
2022-08-07T17:50:19.223Z,25.60
2022-08-07T17:52:58.923Z,25.50
2022-08-07T17:56:00.618Z,25.50
2022-08-07T17:58:31.216Z,25.50
2022-08-07T18:01:18.079Z,25.40
2022-08-07T18:04:07.523Z,25.30
2022-08-07T18:06:42.880Z,25.30
2022-08-07T18:10:04.631Z,25.20
2022-08-07T18:12:27.828Z,25.20
2022-08-07T18:15:08.352Z,25.20
2022-08-07T18:18:45.045Z,25.10
2022-08-07T18:21:10.404Z,25.00
2022-08-07T18:23:43.136Z,25.00
2022-08-07T18:26:19.323Z,24.90
2022-08-07T18:30:06.867Z,24.90
2022-08-07T18:32:08.775Z,24.80
2022-08-07T18:35:05.614Z,24.70
2022-08-07T18:38:57.159Z,24.60
2022-08-07T18:41:09.158Z,24.50
2022-08-07T18:43:57.853Z,24.40
2022-08-07T18:46:33.320Z,24.30
2022-08-07T18:50:31.038Z,24.20
2022-08-07T18:52:35.520Z,24.20
2022-08-07T18:55:41.584Z,24.10
2022-08-07T18:58:24.099Z,24.00
2022-08-07T19:01:06.264Z,24.00
2022-08-07T19:03:49.661Z,24.00
2022-08-07T19:06:33.522Z,23.90
2022-08-07T19:09:55.426Z,23.80
2022-08-07T19:12:19.604Z,23.70
2022-08-07T19:15:00.697Z,23.60
2022-08-07T19:18:01.034Z,23.50
2022-08-07T19:20:39.591Z,23.50
2022-08-07T19:23:59.133Z,23.40
2022-08-07T19:26:29.082Z,23.30
2022-08-07T19:30:55.809Z,23.30
2022-08-07T19:32:08.008Z,23.20
2022-08-07T19:34:47.900Z,23.20
2022-08-07T19:37:18.789Z,23.10
2022-08-07T19:40:01.987Z,22.90
2022-08-07T19:42:39.921Z,22.70
2022-08-07T19:46:09.525Z,22.50
2022-08-07T19:48:03.437Z,22.30
2022-08-07T19:50:41.093Z,22.10
2022-08-07T19:54:33.179Z,21.90
2022-08-07T19:56:13.558Z,21.80
2022-08-07T19:58:53.068Z,21.70
2022-08-07T20:01:52.981Z,21.70
2022-08-07T20:04:31.320Z,21.60
2022-08-07T20:07:04.603Z,21.50
2022-08-07T20:10:36.281Z,21.50
2022-08-07T20:12:35.956Z,21.40
2022-08-07T20:15:15.641Z,21.30
2022-08-07T20:18:01.360Z,21.20
2022-08-07T20:20:32.798Z,21.10
2022-08-07T20:23:23.247Z,20.90
2022-08-07T20:25:54.961Z,20.90
2022-08-07T20:28:29.670Z,20.80
2022-08-07T20:30:59.587Z,20.80
2022-08-07T20:33:38.319Z,20.80
2022-08-07T20:36:09.731Z,20.70
2022-08-07T20:38:59.961Z,20.50
2022-08-07T20:41:37.923Z,20.40
2022-08-07T20:44:12.896Z,20.30
2022-08-07T20:46:44.927Z,20.20
2022-08-07T20:50:00.719Z,20.20
2022-08-07T20:52:16.548Z,20.20
2022-08-07T20:54:53.301Z,20.10
2022-08-07T20:57:24.794Z,20.00
2022-08-07T21:00:07.237Z,19.80
2022-08-07T21:03:01.224Z,19.70
2022-08-07T21:05:52.467Z,19.50
2022-08-07T21:08:36.743Z,19.40
2022-08-07T21:11:10.578Z,19.30
2022-08-07T21:13:57.420Z,19.30
2022-08-07T21:16:36.579Z,19.20
2022-08-07T21:19:10.169Z,19.00
2022-08-07T21:21:49.237Z,18.90
2022-08-07T21:24:33.323Z,18.80
2022-08-07T21:27:27.214Z,18.60
2022-08-07T21:30:10.976Z,18.50
2022-08-07T21:32:49.610Z,18.50
2022-08-07T21:36:03.835Z,18.50
2022-08-07T21:38:27.502Z,18.50
2022-08-07T21:41:09.627Z,18.40
2022-08-07T21:43:55.937Z,18.30
2022-08-07T21:46:32.419Z,18.20
2022-08-07T21:49:15.109Z,18.10
2022-08-07T21:51:55.648Z,18.10
2022-08-07T21:54:37.441Z,18.00
2022-08-07T21:57:31.191Z,18.00
2022-08-07T22:00:22.085Z,17.90
2022-08-07T22:02:57.498Z,17.80
2022-08-07T22:05:44.296Z,17.80
2022-08-07T22:08:18.548Z,17.70
2022-08-07T22:10:50.695Z,17.60
2022-08-07T22:13:24.544Z,17.50
2022-08-07T22:16:43.356Z,17.50
2022-08-07T22:19:08.118Z,17.40
2022-08-07T22:22:04.297Z,17.50
2022-08-07T22:24:35.557Z,17.50
2022-08-07T22:27:13.499Z,17.50
2022-08-07T22:29:50.237Z,17.50
2022-08-07T22:32:24.903Z,17.40
2022-08-07T22:34:55.187Z,17.30
2022-08-07T22:38:03.786Z,17.20
2022-08-07T22:40:27.804Z,17.20
2022-08-07T22:43:03.636Z,17.10
2022-08-07T22:46:21.603Z,17.00
2022-08-07T22:48:55.217Z,16.90
2022-08-07T22:52:00.508Z,16.90
2022-08-07T22:55:17.789Z,16.70
2022-08-07T22:58:11.210Z,16.70
2022-08-07T23:00:53.152Z,16.60
2022-08-07T23:03:57.658Z,16.50
2022-08-07T23:06:51.872Z,16.50
2022-08-07T23:10:04.206Z,16.40
2022-08-07T23:12:49.490Z,16.40
2022-08-07T23:16:05.668Z,16.40
2022-08-07T23:18:32.090Z,16.30
2022-08-07T23:21:29.855Z,16.30
2022-08-07T23:24:17.517Z,16.30
2022-08-07T23:27:07.771Z,16.20
2022-08-07T23:30:38.008Z,16.20
2022-08-07T23:34:35.433Z,16.10
2022-08-07T23:36:17.386Z,16.00
2022-08-07T23:38:59.782Z,15.90
2022-08-07T23:41:47.781Z,15.80
2022-08-07T23:44:48.969Z,15.80
2022-08-07T23:47:30.379Z,15.80
2022-08-07T23:50:34.332Z,15.80
2022-08-07T23:53:16.718Z,15.70
2022-08-07T23:55:55.553Z,15.70
2022-08-07T23:58:31.989Z,15.60
